Time;durP1;ratioP1;P1;durP2;ratioP2;P2;SDS_P1;SDS_P2;PMS_P1;PMS_P2;Temp;Humidity;BMP_temperature;BMP_pressure;BME280_temperature;BME280_humidity;BME280_pressure;Samples;Min_cycle;Max_cycle;Signal;HPM_P1;HPM_P2
2022/12/05 00:02:21;;;;;;;42.63;22.77;;;5.60;99.90;;;;;;5070637;28;20179;-76
2022/12/05 00:04:47;;;;;;;37.70;21.95;;;5.60;99.90;;;;;;5074229;28;20189;-74
2022/12/05 00:07:13;;;;;;;41.33;22.33;;;5.60;99.90;;;;;;5092649;28;20611;-75
2022/12/05 00:09:38;;;;;;;37.40;21.70;;;5.60;99.90;;;;;;5070893;28;20269;-75
2022/12/05 00:12:05;;;;;;;41.67;22.20;;;5.60;99.90;;;;;;5061893;28;20236;-76
2022/12/05 00:14:30;;;;;;;36.05;22.05;;;5.60;99.90;;;;;;5055797;28;20246;-79
2022/12/05 00:16:56;;;;;;;37.75;22.23;;;5.60;99.90;;;;;;5069061;28;20202;-75
2022/12/05 00:19:22;;;;;;;44.25;23.10;;;5.60;99.90;;;;;;5070257;28;20178;-75
2022/12/05 00:21:47;;;;;;;40.45;22.55;;;5.60;99.90;;;;;;5067483;28;20187;-77
2022/12/05 00:24:15;;;;;;;39.58;22.55;;;5.60;99.90;;;;;;5072358;28;20182;-75
2022/12/05 00:26:42;;;;;;;38.45;22.40;;;5.70;99.90;;;;;;5068473;28;20214;-75
2022/12/05 00:29:07;;;;;;;44.38;23.80;;;5.70;99.90;;;;;;5071432;28;20167;-75
2022/12/05 00:31:33;;;;;;;42.40;23.88;;;5.70;99.90;;;;;;5069976;28;20555;-74
2022/12/05 00:34:00;;;;;;;46.22;24.83;;;5.70;99.90;;;;;;5058666;28;20656;-74
2022/12/05 00:36:29;;;;;;;43.88;24.90;;;5.70;99.90;;;;;;5070586;28;20213;-74
2022/12/05 00:38:59;;;;;;;46.00;24.00;;;5.70;99.90;;;;;;5071579;28;20197;-75
2022/12/05 00:41:26;;;;;;;41.47;23.15;;;5.70;99.90;;;;;;5069745;28;20193;-74
2022/12/05 00:43:53;;;;;;;48.58;25.73;;;5.70;99.90;;;;;;5061832;28;20183;-74
2022/12/05 00:46:22;;;;;;;47.83;25.52;;;5.80;99.90;;;;;;5056500;28;20210;-77
2022/12/05 00:48:48;;;;;;;47.90;25.00;;;5.80;99.90;;;;;;5060889;28;20187;-75
2022/12/05 00:51:20;;;;;;;51.90;25.55;;;5.80;99.90;;;;;;5069217;28;20179;-74
2022/12/05 00:53:46;;;;;;;50.95;25.85;;;5.80;99.90;;;;;;5065335;28;20183;-74
2022/12/05 00:56:17;;;;;;;48.22;26.30;;;5.90;99.90;;;;;;5064508;28;20182;-75
2022/12/05 00:58:43;;;;;;;49.75;25.90;;;5.70;99.90;;;;;;5062785;28;20175;-75
2022/12/05 01:01:14;;;;;;;47.17;25.30;;;5.80;99.90;;;;;;5054148;28;20190;-74
2022/12/05 01:03:39;;;;;;;51.50;25.38;;;5.80;99.90;;;;;;5069309;28;20216;-74
2022/12/05 01:06:06;;;;;;;49.38;26.17;;;5.90;99.90;;;;;;5078601;28;20215;-74
2022/12/05 01:08:33;;;;;;;44.35;24.95;;;5.80;99.90;;;;;;5073084;28;20261;-74
2022/12/05 01:10:59;;;;;;;48.72;25.73;;;5.90;99.90;;;;;;5068965;28;20168;-75
2022/12/05 01:13:26;;;;;;;45.63;23.85;;;5.90;99.90;;;;;;5074378;28;20179;-75
2022/12/05 01:15:52;;;;;;;44.85;23.90;;;5.90;99.90;;;;;;5061023;28;20234;-75
2022/12/05 01:18:19;;;;;;;44.55;23.55;;;5.90;99.90;;;;;;5075256;28;20186;-76
2022/12/05 01:20:45;;;;;;;43.05;22.33;;;5.90;99.90;;;;;;5073184;28;20187;-78
2022/12/05 01:23:12;;;;;;;36.40;21.35;;;5.90;99.90;;;;;;5073901;28;20179;-75
2022/12/05 01:25:42;;;;;;;38.60;21.08;;;5.90;99.90;;;;;;5066432;28;20241;-77
2022/12/05 01:28:08;;;;;;;37.97;20.42;;;5.90;99.90;;;;;;5069960;28;20277;-76
2022/12/05 01:30:39;;;;;;;36.08;19.55;;;6.00;99.90;;;;;;5071557;28;20207;-75
2022/12/05 01:33:05;;;;;;;33.63;19.17;;;6.00;99.90;;;;;;5073887;28;20323;-74
2022/12/05 01:35:35;;;;;;;33.97;18.33;;;6.00;99.90;;;;;;5068238;28;20183;-78
2022/12/05 01:38:02;;;;;;;32.00;18.70;;;6.00;99.90;;;;;;5066116;28;20205;-75
2022/12/05 01:40:29;;;;;;;29.13;18.00;;;6.00;99.90;;;;;;5073736;28;20661;-75
2022/12/05 01:42:55;;;;;;;29.98;17.48;;;6.00;99.90;;;;;;5073861;28;20265;-74
2022/12/05 01:45:31;;;;;;;30.42;18.33;;;6.00;99.90;;;;;;5058228;28;20267;-81
2022/12/05 01:48:01;;;;;;;27.85;17.23;;;6.10;99.90;;;;;;5060558;28;20187;-74
2022/12/05 01:50:27;;;;;;;27.45;15.77;;;6.10;99.90;;;;;;5065642;28;20187;-74
2022/12/05 01:52:53;;;;;;;24.63;15.40;;;6.10;99.90;;;;;;5073207;28;20214;-75
2022/12/05 01:55:19;;;;;;;29.08;16.80;;;6.10;99.90;;;;;;5073938;28;20217;-75
2022/12/05 01:57:47;;;;;;;28.98;15.93;;;6.10;99.90;;;;;;5053040;28;20248;-75
2022/12/05 02:00:16;;;;;;;24.08;15.02;;;6.10;99.90;;;;;;5054912;28;20285;-74
2022/12/05 02:02:50;;;;;;;25.65;15.07;;;6.10;99.90;;;;;;5068977;28;20182;-75
2022/12/05 02:05:24;;;;;;;23.08;14.75;;;6.20;99.90;;;;;;5079274;28;20199;-74
2022/12/05 02:07:50;;;;;;;24.13;14.73;;;6.20;99.90;;;;;;5062055;28;20193;-76
2022/12/05 02:10:17;;;;;;;26.15;14.88;;;6.20;99.90;;;;;;5074312;28;20195;-75
2022/12/05 02:12:43;;;;;;;24.92;14.30;;;6.20;99.90;;;;;;5072946;28;20186;-75
2022/12/05 02:15:17;;;;;;;26.60;15.13;;;6.20;99.90;;;;;;5074405;28;20221;-75
2022/12/05 02:18:08;;;;;;;21.90;14.82;;;6.20;99.90;;;;;;5064848;28;20652;-79
2022/12/05 02:21:12;;;;;;;21.40;14.38;;;6.20;99.90;;;;;;5071673;28;20182;-75
2022/12/05 02:23:49;;;;;;;22.67;13.48;;;6.20;99.90;;;;;;5054183;28;20201;-76
2022/12/05 02:26:21;;;;;;;21.08;13.10;;;6.20;99.90;;;;;;5055208;28;20710;-75
2022/12/05 02:29:02;;;;;;;28.23;13.80;;;6.20;99.90;;;;;;5074341;28;20232;-75
2022/12/05 02:31:51;;;;;;;22.33;12.93;;;6.20;99.90;;;;;;5071869;28;20273;-76
2022/12/05 02:34:30;;;;;;;20.08;11.75;;;6.20;99.90;;;;;;5066334;28;20197;-75
2022/12/05 02:37:21;;;;;;;22.10;12.57;;;6.20;99.90;;;;;;5067641;28;20191;-75
2022/12/05 02:39:55;;;;;;;21.00;12.68;;;6.20;99.90;;;;;;5067470;28;20634;-75
2022/12/05 02:42:33;;;;;;;22.63;12.50;;;6.20;99.90;;;;;;5072517;28;20182;-75
2022/12/05 02:45:06;;;;;;;23.25;12.75;;;6.20;99.90;;;;;;5057497;28;20270;-75
2022/12/05 02:47:35;;;;;;;20.02;11.80;;;6.20;99.90;;;;;;5063700;28;20185;-75
2022/12/05 02:50:02;;;;;;;20.02;12.52;;;6.20;99.90;;;;;;5072702;28;20174;-75
2022/12/05 02:52:30;;;;;;;17.95;11.73;;;6.20;99.90;;;;;;5067263;28;20691;-74
2022/12/05 02:54:56;;;;;;;19.90;11.73;;;6.20;99.90;;;;;;5053864;28;20175;-75
2022/12/05 02:57:25;;;;;;;20.30;12.05;;;6.20;99.90;;;;;;5063574;28;20186;-75
2022/12/05 02:59:51;;;;;;;17.38;11.50;;;6.20;99.90;;;;;;5072419;28;20273;-75
2022/12/05 03:02:30;;;;;;;17.88;11.05;;;6.10;99.90;;;;;;5060642;28;20710;-74
2022/12/05 03:05:13;;;;;;;17.38;11.25;;;6.20;99.90;;;;;;5059334;28;20266;-78
2022/12/05 03:07:43;;;;;;;16.85;11.20;;;6.20;99.90;;;;;;5062097;28;20190;-74
2022/12/05 03:10:13;;;;;;;18.45;10.57;;;6.20;99.90;;;;;;5052173;28;20685;-75
2022/12/05 03:12:46;;;;;;;16.45;10.52;;;6.20;99.90;;;;;;5067557;28;20278;-76
2022/12/05 03:15:18;;;;;;;17.05;10.45;;;6.20;99.90;;;;;;5058262;28;20773;-75
2022/12/05 03:17:51;;;;;;;18.02;11.38;;;6.20;99.90;;;;;;5068303;28;20621;-76
2022/12/05 03:20:27;;;;;;;17.33;10.45;;;6.20;99.90;;;;;;5066683;28;20254;-75
2022/12/05 03:23:00;;;;;;;18.27;11.18;;;6.20;99.90;;;;;;5069952;28;20236;-75
2022/12/05 03:25:37;;;;;;;19.65;11.43;;;6.20;99.90;;;;;;5061697;28;20213;-74
2022/12/05 03:28:16;;;;;;;18.05;11.25;;;6.20;99.90;;;;;;5057419;28;20183;-75
2022/12/05 03:30:42;;;;;;;19.38;10.77;;;6.20;99.90;;;;;;5065594;28;20614;-75
2022/12/05 03:33:19;;;;;;;15.52;10.48;;;6.20;99.90;;;;;;5071366;28;20653;-75
2022/12/05 03:36:08;;;;;;;18.85;10.50;;;6.20;99.90;;;;;;5069848;28;20196;-82
2022/12/05 03:38:42;;;;;;;17.73;11.30;;;6.20;99.90;;;;;;5057869;28;20171;-75
2022/12/05 03:41:15;;;;;;;16.60;11.05;;;6.20;99.90;;;;;;5071836;28;20194;-75
2022/12/05 03:44:12;;;;;;;20.27;11.85;;;6.20;99.90;;;;;;5072866;28;20166;-77
2022/12/05 03:47:03;;;;;;;15.23;10.60;;;6.20;99.90;;;;;;5056397;28;20218;-78
2022/12/05 03:49:40;;;;;;;17.35;10.48;;;6.20;99.90;;;;;;5070531;28;20171;-75
2022/12/05 03:52:33;;;;;;;19.42;10.98;;;6.20;99.90;;;;;;5070766;28;20182;-75
2022/12/05 03:55:06;;;;;;;18.35;10.57;;;6.10;99.90;;;;;;5070382;28;20212;-75
2022/12/05 03:57:42;;;;;;;18.45;11.52;;;6.20;99.90;;;;;;5069225;28;20186;-75
2022/12/05 04:00:13;;;;;;;17.75;11.07;;;6.10;99.90;;;;;;5072653;28;20158;-75
2022/12/05 04:02:46;;;;;;;18.92;11.75;;;6.20;99.90;;;;;;5071086;28;20178;-75
2022/12/05 04:05:23;;;;;;;16.60;11.07;;;6.20;99.90;;;;;;5080055;28;20189;-75
2022/12/05 04:07:56;;;;;;;21.98;11.77;;;6.10;99.90;;;;;;5059851;28;20671;-75
2022/12/05 04:10:27;;;;;;;25.50;12.13;;;6.20;99.90;;;;;;5072375;28;20185;-75
2022/12/05 04:12:58;;;;;;;19.95;12.38;;;6.20;99.90;;;;;;5071171;28;20190;-75
2022/12/05 04:17:02;;;;;;;20.38;12.63;;;6.20;99.90;;;;;;5069521;28;20261;-75
2022/12/05 04:18:18;;;;;;;21.35;12.43;;;6.10;99.90;;;;;;5059271;28;20285;-76
2022/12/05 04:23:29;;;;;;;26.10;12.60;;;6.10;99.90;;;;;;5072729;28;20548;-75
2022/12/05 04:26:23;;;;;;;20.85;12.85;;;6.20;99.90;;;;;;5067566;28;20210;-75
2022/12/05 04:28:56;;;;;;;19.67;12.20;;;6.10;99.90;;;;;;5055506;28;20271;-76
2022/12/05 04:31:28;;;;;;;21.95;12.27;;;6.10;99.90;;;;;;5063573;28;20552;-75
2022/12/05 04:34:05;;;;;;;21.98;12.57;;;6.20;99.90;;;;;;5071136;28;20240;-75
2022/12/05 04:37:11;;;;;;;20.73;12.10;;;6.20;99.90;;;;;;5071165;28;20219;-76
2022/12/05 04:39:50;;;;;;;21.98;11.48;;;6.20;99.90;;;;;;4981230;28;20197;-79
2022/12/05 04:42:22;;;;;;;19.50;12.20;;;6.20;99.90;;;;;;5047159;28;20409;-77
2022/12/05 04:45:06;;;;;;;18.98;11.68;;;6.20;99.90;;;;;;5066937;28;20546;-75
2022/12/05 04:47:39;;;;;;;22.50;12.20;;;6.20;99.90;;;;;;5071747;28;20181;-75
2022/12/05 04:50:08;;;;;;;20.35;11.52;;;6.20;99.90;;;;;;5076017;28;20249;-76
2022/12/05 04:52:36;;;;;;;21.98;12.20;;;6.30;99.90;;;;;;5069740;28;20183;-75
2022/12/05 04:55:14;;;;;;;22.58;12.43;;;6.20;99.90;;;;;;5075760;28;20198;-75
2022/12/05 04:57:52;;;;;;;20.48;11.95;;;6.20;99.90;;;;;;5061078;28;20952;-76
2022/12/05 05:00:18;;;;;;;18.83;11.20;;;6.20;99.90;;;;;;5055905;28;20175;-75
2022/12/05 05:02:57;;;;;;;20.38;11.93;;;6.20;99.90;;;;;;5071212;28;20680;-75
2022/12/05 05:05:24;;;;;;;22.23;11.88;;;6.20;99.90;;;;;;5077113;28;20198;-75
2022/12/05 05:07:54;;;;;;;20.00;12.23;;;6.20;99.90;;;;;;5070521;28;20211;-75
2022/12/05 05:10:40;;;;;;;18.63;11.10;;;6.30;99.90;;;;;;5062212;28;20197;-75
2022/12/05 05:13:06;;;;;;;19.08;11.05;;;6.20;99.90;;;;;;5063594;28;20181;-75
2022/12/05 05:15:32;;;;;;;19.15;11.65;;;6.20;99.90;;;;;;5074273;28;20230;-75
2022/12/05 05:17:57;;;;;;;19.67;11.30;;;6.20;99.90;;;;;;5074146;28;20638;-75
2022/12/05 05:20:23;;;;;;;21.73;11.65;;;6.20;99.90;;;;;;5073418;28;20243;-75
2022/12/05 05:22:51;;;;;;;18.90;11.35;;;6.20;99.90;;;;;;5073597;28;20698;-75
2022/12/05 05:25:17;;;;;;;19.70;11.13;;;6.20;99.90;;;;;;5074991;28;20202;-75
2022/12/05 05:27:48;;;;;;;18.63;11.52;;;6.20;99.90;;;;;;5069013;28;20190;-80
2022/12/05 05:30:13;;;;;;;27.98;12.20;;;6.20;99.90;;;;;;5064225;28;20179;-76
2022/12/05 05:32:39;;;;;;;16.73;11.02;;;6.20;99.90;;;;;;5073725;28;20232;-75
2022/12/05 05:35:05;;;;;;;24.17;11.55;;;6.20;99.90;;;;;;5074988;28;20206;-76
2022/12/05 05:37:31;;;;;;;20.88;11.93;;;6.20;99.90;;;;;;5066849;28;20187;-76
2022/12/05 05:39:56;;;;;;;20.27;10.82;;;6.30;99.90;;;;;;5060932;28;20666;-78
2022/12/05 05:42:22;;;;;;;18.55;10.82;;;6.20;99.90;;;;;;5070809;28;20581;-75
2022/12/05 05:44:48;;;;;;;20.05;11.05;;;6.20;99.90;;;;;;5073686;28;20213;-75
2022/12/05 05:47:13;;;;;;;20.42;10.95;;;6.20;99.90;;;;;;5072401;28;20568;-75
2022/12/05 05:49:39;;;;;;;19.83;10.98;;;6.20;99.90;;;;;;5072083;28;20236;-75
2022/12/05 05:52:05;;;;;;;20.02;11.73;;;6.20;99.90;;;;;;5072755;28;20189;-75
2022/12/05 05:54:31;;;;;;;19.40;11.27;;;6.30;99.90;;;;;;5089901;28;20240;-75
2022/12/05 05:56:56;;;;;;;20.55;11.43;;;6.20;99.90;;;;;;5072071;28;20617;-77
2022/12/05 05:59:22;;;;;;;17.95;11.05;;;6.20;99.90;;;;;;5073425;28;20210;-78
2022/12/05 06:01:48;;;;;;;22.00;11.55;;;6.20;99.90;;;;;;5066012;28;20629;-79
2022/12/05 06:04:13;;;;;;;18.98;10.50;;;6.20;99.90;;;;;;5058102;28;20193;-81
2022/12/05 06:06:39;;;;;;;19.17;11.30;;;6.20;99.90;;;;;;5058573;28;20217;-75
2022/12/05 06:09:06;;;;;;;17.27;10.95;;;6.20;99.90;;;;;;5070785;28;20190;-76
2022/12/05 06:11:32;;;;;;;18.58;10.48;;;6.20;99.90;;;;;;5073127;28;20214;-76
2022/12/05 06:14:02;;;;;;;17.27;10.25;;;6.20;99.90;;;;;;5073525;28;20214;-76
2022/12/05 06:16:29;;;;;;;22.30;11.63;;;6.20;99.90;;;;;;5071105;28;20226;-80
2022/12/05 06:18:56;;;;;;;16.55;10.75;;;6.20;99.90;;;;;;5054096;28;20241;-80
2022/12/05 06:21:22;;;;;;;20.85;11.43;;;6.30;99.90;;;;;;5070673;28;20662;-75
2022/12/05 06:23:49;;;;;;;24.10;11.02;;;6.30;99.90;;;;;;5074074;28;20223;-75
2022/12/05 06:26:18;;;;;;;21.08;11.20;;;6.20;99.90;;;;;;5069474;28;20222;-75
2022/12/05 06:28:45;;;;;;;20.98;11.05;;;6.20;99.90;;;;;;5071255;28;20688;-76
2022/12/05 06:31:17;;;;;;;20.95;11.93;;;6.30;99.90;;;;;;5071474;28;20175;-75
2022/12/05 06:33:42;;;;;;;16.80;9.98;;;6.20;99.90;;;;;;5073964;28;20170;-75
2022/12/05 06:36:12;;;;;;;20.55;11.48;;;6.20;99.90;;;;;;5058168;28;20186;-79
2022/12/05 06:38:37;;;;;;;21.00;11.00;;;6.30;99.90;;;;;;5065079;28;20194;-75
2022/12/05 06:41:05;;;;;;;19.75;10.82;;;6.30;99.90;;;;;;5066549;28;20187;-75
2022/12/05 06:43:31;;;;;;;21.10;10.50;;;6.30;99.90;;;;;;5061339;28;20260;-81
2022/12/05 06:45:56;;;;;;;21.02;10.93;;;6.30;99.90;;;;;;5071707;28;20689;-75
2022/12/05 06:48:22;;;;;;;19.77;10.98;;;6.30;99.90;;;;;;5071731;28;20739;-75
2022/12/05 06:50:52;;;;;;;19.98;11.05;;;6.30;99.90;;;;;;5072173;28;20183;-76
2022/12/05 06:53:21;;;;;;;22.58;11.60;;;6.30;99.90;;;;;;5068275;28;20274;-75
2022/12/05 06:55:57;;;;;;;22.17;12.05;;;6.30;99.90;;;;;;5061026;28;20183;-80
2022/12/05 06:58:23;;;;;;;30.25;12.48;;;6.30;99.90;;;;;;5072346;28;20194;-78
2022/12/05 07:03:34;;;;;;;24.92;12.52;;;6.30;99.90;;;;;;5073192;28;20171;-79
2022/12/05 07:06:04;;;;;;;20.48;11.77;;;6.30;99.90;;;;;;5071118;28;20195;-84
2022/12/05 07:08:30;;;;;;;25.63;12.02;;;6.30;99.90;;;;;;5056552;28;20184;-76
2022/12/05 07:10:56;;;;;;;22.58;11.88;;;6.30;99.90;;;;;;5071406;28;20531;-76
2022/12/05 07:13:22;;;;;;;23.25;11.57;;;6.20;99.90;;;;;;5073217;28;20185;-76
2022/12/05 07:15:49;;;;;;;24.50;11.98;;;6.30;99.90;;;;;;5073089;28;20250;-75
2022/12/05 07:18:16;;;;;;;21.33;12.70;;;6.30;99.90;;;;;;5071129;28;20183;-75
2022/12/05 07:20:42;;;;;;;24.30;11.80;;;6.30;99.90;;;;;;5061365;28;20195;-76
2022/12/05 07:23:08;;;;;;;23.15;11.80;;;6.30;99.90;;;;;;5069211;28;20316;-76
2022/12/05 07:25:39;;;;;;;22.67;10.68;;;6.30;99.90;;;;;;5068396;28;20206;-76
2022/12/05 07:28:05;;;;;;;26.05;11.82;;;6.30;99.90;;;;;;5072529;28;20194;-76
2022/12/05 07:30:31;;;;;;;24.88;11.52;;;6.30;99.90;;;;;;5064336;28;20240;-76
2022/12/05 07:32:56;;;;;;;25.25;12.20;;;6.30;99.90;;;;;;5052625;28;20636;-77
2022/12/05 07:35:22;;;;;;;26.48;12.55;;;6.30;99.90;;;;;;5054335;28;20183;-76
2022/12/05 07:37:48;;;;;;;23.77;11.88;;;6.30;99.90;;;;;;5054402;28;20265;-76
2022/12/05 07:40:14;;;;;;;22.33;11.02;;;6.30;99.90;;;;;;5059658;28;20190;-76
2022/12/05 07:42:39;;;;;;;21.83;11.50;;;6.30;99.90;;;;;;5053954;28;20651;-75
2022/12/05 07:45:06;;;;;;;27.27;11.75;;;6.30;99.90;;;;;;5072431;28;20213;-76
2022/12/05 07:47:31;;;;;;;24.60;11.68;;;6.30;99.90;;;;;;5071039;28;20187;-76
2022/12/05 07:49:57;;;;;;;20.80;11.10;;;6.40;99.90;;;;;;5072589;28;20183;-76
2022/12/05 07:52:23;;;;;;;25.88;11.38;;;6.30;99.90;;;;;;5069681;28;20186;-77
2022/12/05 07:54:48;;;;;;;21.83;10.65;;;6.40;99.90;;;;;;5070555;28;20194;-76
2022/12/05 07:57:14;;;;;;;26.00;11.80;;;6.40;99.90;;;;;;5071875;28;20241;-75
2022/12/05 07:59:40;;;;;;;20.40;10.45;;;6.40;99.90;;;;;;5072189;28;20174;-76
2022/12/05 08:02:07;;;;;;;26.95;10.95;;;6.30;99.90;;;;;;5072219;28;20618;-76
2022/12/05 08:04:32;;;;;;;22.23;10.88;;;6.40;99.90;;;;;;5069711;28;20539;-76
2022/12/05 08:06:58;;;;;;;20.30;10.48;;;6.40;99.90;;;;;;5068879;28;20212;-75
2022/12/05 08:09:24;;;;;;;21.25;11.00;;;6.40;99.90;;;;;;5070145;28;20193;-75
2022/12/05 08:11:51;;;;;;;21.25;9.85;;;6.40;99.90;;;;;;5072184;28;20203;-76
2022/12/05 08:14:16;;;;;;;18.63;9.20;;;6.40;99.90;;;;;;5048950;28;20623;-75
2022/12/05 08:16:42;;;;;;;21.85;11.05;;;6.40;99.90;;;;;;5056958;28;20313;-75
2022/12/05 08:19:12;;;;;;;19.52;10.38;;;6.40;99.90;;;;;;5074449;28;20201;-78
2022/12/05 08:21:38;;;;;;;19.92;10.35;;;6.40;99.90;;;;;;5075596;28;20179;-77
2022/12/05 08:24:05;;;;;;;18.83;10.48;;;6.40;99.90;;;;;;5073842;28;20195;-75
2022/12/05 08:26:33;;;;;;;18.95;9.52;;;6.40;99.90;;;;;;5062951;28;20210;-76
2022/12/05 08:29:03;;;;;;;19.23;10.27;;;6.40;99.90;;;;;;5074757;28;20209;-75
2022/12/05 08:31:31;;;;;;;19.48;11.30;;;6.40;99.90;;;;;;5076067;28;20183;-76
2022/12/05 08:33:58;;;;;;;21.63;11.68;;;6.40;99.90;;;;;;5072694;28;20174;-75
2022/12/05 08:36:25;;;;;;;24.73;10.35;;;6.40;99.90;;;;;;5070649;28;20260;-76
2022/12/05 08:38:59;;;;;;;19.83;10.65;;;6.40;99.90;;;;;;5071247;28;20553;-77
2022/12/05 08:41:27;;;;;;;25.58;11.10;;;6.40;99.90;;;;;;5075886;28;20162;-75
2022/12/05 08:44:04;;;;;;;24.17;10.60;;;6.40;99.90;;;;;;5072572;28;20182;-76
2022/12/05 08:46:31;;;;;;;19.20;10.63;;;6.40;99.90;;;;;;5075582;28;20222;-74
2022/12/05 08:48:57;;;;;;;21.75;10.98;;;6.40;99.90;;;;;;5070443;28;20585;-78
2022/12/05 08:51:22;;;;;;;22.90;10.90;;;6.40;99.90;;;;;;5073906;28;20190;-74
2022/12/05 08:53:48;;;;;;;24.27;10.50;;;6.50;99.90;;;;;;5073477;28;20179;-75
2022/12/05 08:56:14;;;;;;;22.10;11.15;;;6.40;99.90;;;;;;5072009;28;20186;-75
2022/12/05 08:58:40;;;;;;;19.00;10.10;;;6.50;99.90;;;;;;5061699;28;20183;-74
2022/12/05 09:01:17;;;;;;;25.58;11.82;;;6.40;99.90;;;;;;5073683;28;20511;-74
2022/12/05 09:03:43;;;;;;;22.30;10.70;;;6.40;99.90;;;;;;5072325;28;20214;-74
2022/12/05 09:06:17;;;;;;;23.73;11.57;;;6.40;99.90;;;;;;5077620;28;20673;-74
2022/12/05 09:08:43;;;;;;;19.98;11.10;;;6.40;99.90;;;;;;5070423;28;20546;-79
2022/12/05 09:11:13;;;;;;;19.88;11.40;;;6.40;99.90;;;;;;5075402;28;20618;-74
2022/12/05 09:13:38;;;;;;;26.75;11.98;;;6.40;99.90;;;;;;5070085;28;20266;-73
2022/12/05 09:16:10;;;;;;;26.35;13.05;;;6.40;99.90;;;;;;5075361;28;20371;-74
2022/12/05 09:18:36;;;;;;;23.73;12.00;;;6.40;99.90;;;;;;5071259;28;20522;-74
2022/12/05 09:21:35;;;;;;;24.80;12.57;;;6.40;99.90;;;;;;5075595;28;20185;-76
2022/12/05 09:24:01;;;;;;;21.30;11.18;;;6.40;99.90;;;;;;5069799;28;20190;-76
2022/12/05 09:26:28;;;;;;;21.13;11.57;;;6.40;99.90;;;;;;5075111;28;20439;-87
2022/12/05 09:28:56;;;;;;;25.13;12.43;;;6.50;99.90;;;;;;5054110;28;20669;-75
2022/12/05 09:31:24;;;;;;;25.50;12.70;;;6.40;99.90;;;;;;5075027;28;20622;-77
2022/12/05 09:33:50;;;;;;;25.65;12.20;;;6.50;99.90;;;;;;5072401;28;20287;-77
2022/12/05 09:36:25;;;;;;;29.80;12.57;;;6.50;99.90;;;;;;5073111;28;20642;-76
2022/12/05 09:38:52;;;;;;;28.15;12.10;;;6.50;99.90;;;;;;5072406;28;20672;-76
2022/12/05 09:44:48;;;;;;;21.10;11.95;;;6.50;99.90;;;;;;5062577;28;20182;-79
2022/12/05 09:47:17;;;;;;;23.85;12.02;;;6.50;99.90;;;;;;5087919;28;20618;-77
2022/12/05 09:49:53;;;;;;;27.92;12.45;;;6.50;99.90;;;;;;5072569;28;20186;-77
2022/12/05 09:52:42;;;;;;;26.40;13.07;;;6.60;99.90;;;;;;5073677;28;20186;-80
2022/12/05 09:55:14;;;;;;;24.60;11.57;;;6.60;99.90;;;;;;5061829;28;20179;-81
2022/12/05 09:57:50;;;;;;;25.38;12.38;;;6.60;99.90;;;;;;5066692;28;20208;-80
2022/12/05 10:00:16;;;;;;;24.63;12.38;;;6.60;99.90;;;;;;5053581;28;20248;-80
2022/12/05 10:02:56;;;;;;;27.92;12.38;;;6.50;99.90;;;;;;5066735;28;20211;-77
2022/12/05 10:05:41;;;;;;;23.08;12.15;;;6.50;99.90;;;;;;5072411;28;20599;-77
2022/12/05 10:08:57;;;;;;;27.48;13.15;;;6.60;99.90;;;;;;5071249;28;20748;-77
2022/12/05 10:11:33;;;;;;;23.83;13.18;;;6.60;99.90;;;;;;5055948;28;20255;-77
2022/12/05 10:14:05;;;;;;;23.20;12.48;;;6.50;99.90;;;;;;5070863;28;20615;-78
2022/12/05 10:16:40;;;;;;;23.15;12.55;;;6.60;99.90;;;;;;5055941;28;20241;-77
2022/12/05 10:19:12;;;;;;;24.35;12.25;;;6.50;99.90;;;;;;5070501;28;20691;-77
2022/12/05 10:21:50;;;;;;;28.55;13.05;;;6.60;99.90;;;;;;5068684;28;20179;-77
2022/12/05 10:24:27;;;;;;;21.90;12.75;;;6.60;99.90;;;;;;5058601;28;20177;-78
2022/12/05 10:27:03;;;;;;;26.92;12.55;;;6.50;99.90;;;;;;5072691;28;20206;-79
2022/12/05 10:29:39;;;;;;;21.33;12.18;;;6.50;99.90;;;;;;5069220;28;20751;-81
2022/12/05 10:32:14;;;;;;;27.83;12.50;;;6.50;99.90;;;;;;5073836;28;20241;-78
2022/12/05 10:34:41;;;;;;;26.33;12.52;;;6.50;99.90;;;;;;5068965;28;20189;-78
2022/12/05 10:37:17;;;;;;;26.00;12.38;;;6.50;99.90;;;;;;5061303;28;20276;-82
2022/12/05 10:39:44;;;;;;;24.42;12.82;;;6.50;99.90;;;;;;5071996;28;20182;-76
2022/12/05 10:42:16;;;;;;;24.83;12.68;;;6.50;99.90;;;;;;5072381;28;20691;-81
2022/12/05 10:44:42;;;;;;;22.02;12.15;;;6.50;99.90;;;;;;5071937;28;20634;-77
2022/12/05 10:47:09;;;;;;;26.02;12.43;;;6.50;99.90;;;;;;5069322;28;20206;-78
2022/12/05 10:49:36;;;;;;;23.15;12.90;;;6.50;99.90;;;;;;5070758;28;20603;-79
2022/12/05 10:52:03;;;;;;;24.75;12.50;;;6.50;99.90;;;;;;5084129;28;20199;-79
2022/12/05 10:54:31;;;;;;;25.00;12.82;;;6.50;99.90;;;;;;5063338;28;20248;-78
2022/12/05 10:56:57;;;;;;;25.38;13.05;;;6.50;99.90;;;;;;5061505;28;20222;-74
2022/12/05 10:59:25;;;;;;;26.60;12.50;;;6.50;99.90;;;;;;5062142;28;20217;-75
2022/12/05 11:01:57;;;;;;;20.35;11.85;;;6.50;99.90;;;;;;5076860;28;20178;-77
2022/12/05 11:04:28;;;;;;;23.95;11.88;;;6.50;99.90;;;;;;5071772;28;20182;-73
2022/12/05 11:07:04;;;;;;;21.25;11.57;;;6.50;99.90;;;;;;5066808;28;20221;-73
2022/12/05 11:09:35;;;;;;;20.65;10.85;;;6.50;99.90;;;;;;5069295;28;20187;-74
2022/12/05 11:12:08;;;;;;;25.17;11.55;;;6.50;99.90;;;;;;5069104;28;20187;-73
2022/12/05 11:14:35;;;;;;;23.00;11.38;;;6.50;99.90;;;;;;5070673;28;20214;-74
2022/12/05 11:17:03;;;;;;;26.63;11.05;;;6.50;99.90;;;;;;5071166;28;20234;-74
2022/12/05 11:19:37;;;;;;;22.42;11.40;;;6.50;99.90;;;;;;5069636;28;20646;-73
2022/12/05 11:22:06;;;;;;;17.98;10.38;;;6.50;99.90;;;;;;5071088;28;20785;-76
2022/12/05 11:24:36;;;;;;;16.02;10.02;;;6.50;99.90;;;;;;5085055;28;20251;-75
2022/12/05 11:27:28;;;;;;;25.55;10.48;;;6.50;99.90;;;;;;5072224;28;20215;-75
2022/12/05 11:30:02;;;;;;;14.52;7.93;;;6.50;99.90;;;;;;5061762;28;20558;-74
2022/12/05 11:32:31;;;;;;;15.98;8.85;;;6.50;99.90;;;;;;5068717;28;20608;-74
2022/12/05 11:35:12;;;;;;;16.80;8.90;;;6.50;99.90;;;;;;5066953;28;20190;-75
2022/12/05 11:37:55;;;;;;;16.08;9.23;;;6.50;99.90;;;;;;5072806;28;20228;-75
2022/12/05 11:40:36;;;;;;;17.55;8.63;;;6.50;99.90;;;;;;5067749;28;20202;-75
2022/12/05 11:43:36;;;;;;;20.00;8.35;;;6.50;99.90;;;;;;5072721;28;20300;-75
2022/12/05 11:46:23;;;;;;;17.58;8.48;;;6.50;99.90;;;;;;5061726;28;20377;-74
2022/12/05 11:48:48;;;;;;;14.25;7.68;;;6.50;99.90;;;;;;5061227;28;20225;-77
2022/12/05 11:51:34;;;;;;;15.05;8.38;;;6.50;99.90;;;;;;5069434;28;20178;-79
2022/12/05 11:54:41;;;;;;;17.63;7.72;;;6.50;99.90;;;;;;5033222;28;20199;-74
2022/12/05 11:57:35;;;;;;;16.25;8.07;;;6.50;99.90;;;;;;5052573;28;20171;-74
2022/12/05 12:00:19;;;;;;;15.07;7.72;;;6.50;99.90;;;;;;5065045;28;20189;-74
2022/12/05 12:03:21;;;;;;;14.65;7.38;;;6.50;99.90;;;;;;5053019;28;20210;-74
2022/12/05 12:06:14;;;;;;;16.15;8.05;;;6.50;99.90;;;;;;5062458;28;20214;-75
2022/12/05 12:09:09;;;;;;;10.48;6.55;;;6.50;99.90;;;;;;5068297;28;20179;-74
2022/12/05 12:11:53;;;;;;;13.75;7.35;;;6.50;99.90;;;;;;5052459;28;20172;-74
2022/12/05 12:14:46;;;;;;;16.75;7.53;;;6.50;99.90;;;;;;5061864;28;20182;-75
2022/12/05 12:17:47;;;;;;;12.95;7.22;;;6.40;99.90;;;;;;5068309;28;20257;-75
2022/12/05 12:20:33;;;;;;;14.10;6.82;;;6.50;99.90;;;;;;5040099;28;20190;-75
2022/12/05 12:23:33;;;;;;;15.98;7.28;;;6.50;99.90;;;;;;5066922;28;20178;-75
2022/12/05 12:26:13;;;;;;;18.23;7.30;;;6.50;99.90;;;;;;5069889;28;20292;-75
2022/12/05 12:29:03;;;;;;;15.05;6.80;;;6.50;99.90;;;;;;5067873;28;20183;-75
2022/12/05 12:31:48;;;;;;;13.02;7.28;;;6.50;99.90;;;;;;5056216;28;20577;-75
2022/12/05 12:34:38;;;;;;;14.20;7.22;;;6.50;99.90;;;;;;5069897;28;20170;-76
2022/12/05 12:37:20;;;;;;;11.27;6.35;;;6.50;99.90;;;;;;5071769;28;20236;-77
2022/12/05 12:40:12;;;;;;;15.07;6.65;;;6.50;99.90;;;;;;5069101;28;20179;-76
2022/12/05 12:42:57;;;;;;;13.38;7.05;;;6.50;99.90;;;;;;5061736;28;20275;-75
2022/12/05 12:45:44;;;;;;;17.67;7.60;;;6.50;99.90;;;;;;5065893;28;20198;-74
2022/12/05 12:48:39;;;;;;;11.80;6.30;;;6.50;99.90;;;;;;5071755;28;20220;-80
2022/12/05 12:51:12;;;;;;;11.70;6.43;;;6.50;99.90;;;;;;5059498;28;20175;-74
2022/12/05 12:53:46;;;;;;;11.68;6.65;;;6.50;99.90;;;;;;5067432;28;20523;-74
2022/12/05 12:56:24;;;;;;;11.25;6.93;;;6.50;99.90;;;;;;5071374;28;20186;-74
2022/12/05 12:58:58;;;;;;;12.32;6.13;;;6.50;99.90;;;;;;5065449;28;20615;-74
2022/12/05 13:01:38;;;;;;;15.00;6.85;;;6.50;99.90;;;;;;5065895;28;20205;-75
2022/12/05 13:04:24;;;;;;;17.17;6.53;;;6.50;99.90;;;;;;5068808;28;20261;-76
2022/12/05 13:06:57;;;;;;;12.88;6.30;;;6.50;99.90;;;;;;5064707;28;20207;-75
2022/12/05 13:09:36;;;;;;;13.05;6.47;;;6.50;99.90;;;;;;5073147;28;20214;-75
2022/12/05 13:12:09;;;;;;;12.45;6.65;;;6.50;99.90;;;;;;5074640;28;20174;-74
2022/12/05 13:14:38;;;;;;;12.13;6.30;;;6.60;99.90;;;;;;5072341;28;20182;-75